Time;durP1;ratioP1;P1;durP2;ratioP2;P2;SDS_P1;SDS_P2;PMS_P1;PMS_P2;Temp;Humidity;BMP_temperature;BMP_pressure;BME280_temperature;BME280_humidity;BME280_pressure;Samples;Min_cycle;Max_cycle;Signal;HPM_P1;HPM_P2
2024/02/27 00:02:24;;;;;;;28.45;18.30;;;;;;;;;;5050912;28;20089;-93
2024/02/27 00:04:51;;;;;;;25.92;19.05;;;;;;;;;;5048420;28;20505;-93
2024/02/27 00:07:19;;;;;;;25.42;17.33;;;;;;;;;;5045717;28;20049;-92
2024/02/27 00:09:46;;;;;;;25.90;16.67;;;;;;;;;;5049171;28;20041;-93
2024/02/27 00:12:15;;;;;;;27.15;18.27;;;;;;;;;;5043084;28;20079;-92
2024/02/27 00:14:42;;;;;;;22.30;16.90;;;;;;;;;;5050991;28;20049;-93
2024/02/27 00:17:09;;;;;;;29.65;17.45;;;;;;;;;;5057190;28;20052;-93
2024/02/27 00:19:37;;;;;;;22.25;16.80;;;;;;;;;;5052181;28;20509;-93
2024/02/27 00:22:04;;;;;;;24.55;16.20;;;;;;;;;;5054094;28;20041;-94
2024/02/27 00:24:31;;;;;;;22.25;16.63;;;;;;;;;;5045551;28;20056;-93
2024/02/27 00:26:59;;;;;;;24.73;15.50;;;;;;;;;;5045447;28;20072;-93
2024/02/27 00:29:26;;;;;;;20.00;16.02;;;;;;;;;;5050235;28;20053;-94
2024/02/27 00:31:53;;;;;;;24.00;17.42;;;;;;;;;;5042046;28;20060;-93
2024/02/27 00:34:21;;;;;;;22.83;16.52;;;;;;;;;;5043657;28;20100;-93
2024/02/27 00:36:48;;;;;;;23.40;16.73;;;;;;;;;;5045298;28;20493;-94
2024/02/27 00:39:16;;;;;;;22.30;15.73;;;;;;;;;;5053161;28;20107;-94
2024/02/27 00:41:48;;;;;;;24.33;16.42;;;;;;;;;;5053471;28;20061;-93
2024/02/27 00:44:16;;;;;;;23.50;16.50;;;;;;;;;;5045388;28;20495;-93
2024/02/27 00:46:43;;;;;;;28.63;17.20;;;;;;;;;;5048240;28;20096;-94
2024/02/27 00:49:11;;;;;;;23.88;16.60;;;;;;;;;;5042362;28;20064;-93
2024/02/27 00:51:39;;;;;;;26.83;17.13;;;;;;;;;;5049238;28;20076;-94
2024/02/27 00:54:06;;;;;;;25.33;17.27;;;;;;;;;;5037929;28;20452;-94
2024/02/27 00:56:33;;;;;;;24.98;17.58;;;;;;;;;;5045390;28;20053;-94
2024/02/27 00:59:01;;;;;;;25.40;19.15;;;;;;;;;;5045043;28;20053;-93
2024/02/27 01:01:28;;;;;;;26.33;18.83;;;;;;;;;;5042294;28;20057;-93
2024/02/27 01:03:55;;;;;;;26.73;18.63;;;;;;;;;;5041661;28;20064;-93
2024/02/27 01:06:22;;;;;;;26.30;18.98;;;;;;;;;;5051776;28;20456;-94
2024/02/27 01:08:50;;;;;;;28.67;19.15;;;;;;;;;;5044857;28;20139;-94
2024/02/27 01:11:17;;;;;;;24.40;18.13;;;;;;;;;;5044665;28;20069;-93
2024/02/27 01:13:45;;;;;;;25.40;17.67;;;;;;;;;;5049769;28;20521;-93
2024/02/27 01:16:12;;;;;;;26.33;18.33;;;;;;;;;;5039190;28;20056;-93
2024/02/27 01:18:39;;;;;;;23.33;18.13;;;;;;;;;;5044776;28;20516;-93
2024/02/27 01:21:07;;;;;;;27.85;20.23;;;;;;;;;;5044657;28;20067;-93
2024/02/27 01:23:35;;;;;;;25.25;18.25;;;;;;;;;;5045146;28;20053;-94
2024/02/27 01:26:02;;;;;;;26.23;17.98;;;;;;;;;;5045464;28;20053;-94
2024/02/27 01:28:29;;;;;;;23.10;17.20;;;;;;;;;;5049553;28;20065;-93
2024/02/27 01:30:57;;;;;;;25.90;18.85;;;;;;;;;;5052525;28;21136;-93
2024/02/27 01:33:24;;;;;;;29.55;21.45;;;;;;;;;;5063840;28;20050;-93
2024/02/27 01:35:52;;;;;;;29.77;20.20;;;;;;;;;;5052910;28;20462;-93
2024/02/27 01:38:19;;;;;;;27.13;19.55;;;;;;;;;;5044384;28;20053;-93
2024/02/27 01:40:46;;;;;;;31.50;21.50;;;;;;;;;;5044373;28;20049;-93
2024/02/27 01:43:23;;;;;;;35.70;23.45;;;;;;;;;;5049169;28;20567;-93
2024/02/27 01:46:00;;;;;;;36.00;23.58;;;;;;;;;;5043230;28;20452;-93
2024/02/27 01:48:28;;;;;;;42.58;24.50;;;;;;;;;;5043019;28;20061;-92
2024/02/27 01:50:55;;;;;;;39.05;26.15;;;;;;;;;;5046074;28;20051;-93
2024/02/27 01:53:23;;;;;;;37.55;25.58;;;;;;;;;;5051198;28;20099;-92
2024/02/27 01:55:50;;;;;;;36.85;26.17;;;;;;;;;;5046846;28;20111;-93
2024/02/27 01:58:17;;;;;;;33.63;24.40;;;;;;;;;;5048845;28;20106;-93
2024/02/27 02:00:46;;;;;;;36.92;24.10;;;;;;;;;;5040918;28;20046;-93
2024/02/27 02:03:14;;;;;;;38.10;26.40;;;;;;;;;;5052502;28;20481;-94
2024/02/27 02:05:42;;;;;;;46.17;30.55;;;;;;;;;;5048158;28;20053;-93
2024/02/27 02:08:09;;;;;;;52.22;33.17;;;;;;;;;;5048077;28;20076;-92
2024/02/27 02:10:37;;;;;;;48.55;32.30;;;;;;;;;;5052447;28;20049;-92
2024/02/27 02:13:04;;;;;;;49.40;30.42;;;;;;;;;;5044657;28;20054;-93
2024/02/27 02:15:31;;;;;;;51.67;34.10;;;;;;;;;;5047862;28;20052;-93
2024/02/27 02:17:59;;;;;;;60.00;37.05;;;;;;;;;;5049492;28;20111;-93
2024/02/27 02:20:26;;;;;;;60.72;38.45;;;;;;;;;;5047224;28;20041;-93
2024/02/27 02:22:53;;;;;;;59.63;36.58;;;;;;;;;;5050182;28;20099;-92
2024/02/27 02:25:21;;;;;;;56.30;37.38;;;;;;;;;;5052949;28;20107;-93
2024/02/27 02:27:49;;;;;;;59.03;37.22;;;;;;;;;;5044307;28;20049;-92
2024/02/27 02:30:16;;;;;;;63.95;39.47;;;;;;;;;;5046184;28;20053;-92
2024/02/27 02:32:47;;;;;;;63.60;40.25;;;;;;;;;;5052955;28;20057;-92
2024/02/27 02:35:16;;;;;;;60.90;37.85;;;;;;;;;;5045604;28;20080;-93
2024/02/27 02:37:47;;;;;;;64.18;39.67;;;;;;;;;;5052949;28;20053;-93
2024/02/27 02:40:21;;;;;;;66.07;39.88;;;;;;;;;;5041834;28;20057;-92
2024/02/27 02:42:48;;;;;;;68.05;39.97;;;;;;;;;;5038563;28;20053;-93
2024/02/27 02:45:16;;;;;;;68.13;39.83;;;;;;;;;;5066900;28;20037;-94
2024/02/27 02:47:43;;;;;;;60.55;38.78;;;;;;;;;;5070358;28;20054;-94
2024/02/27 02:50:12;;;;;;;62.10;40.10;;;;;;;;;;5041063;28;20049;-92
2024/02/27 02:52:40;;;;;;;67.32;40.65;;;;;;;;;;5036758;28;20053;-93
2024/02/27 02:55:08;;;;;;;64.93;39.72;;;;;;;;;;5055860;28;20072;-92
2024/02/27 02:57:35;;;;;;;66.13;40.05;;;;;;;;;;5047580;28;20053;-93
2024/02/27 03:00:06;;;;;;;69.45;41.63;;;;;;;;;;5047946;28;20080;-92
2024/02/27 03:02:33;;;;;;;63.70;38.75;;;;;;;;;;5043902;28;20149;-94
2024/02/27 03:05:00;;;;;;;63.20;38.63;;;;;;;;;;5050917;28;20409;-93
2024/02/27 03:07:28;;;;;;;62.33;39.38;;;;;;;;;;5044017;28;20049;-92
2024/02/27 03:09:55;;;;;;;63.53;39.17;;;;;;;;;;5043560;28;20046;-93
2024/02/27 03:12:26;;;;;;;57.40;37.05;;;;;;;;;;5045498;28;20111;-92
2024/02/27 03:14:53;;;;;;;62.40;37.97;;;;;;;;;;5046300;28;20053;-92
2024/02/27 03:17:21;;;;;;;63.15;39.55;;;;;;;;;;5045212;28;20055;-92
2024/02/27 03:19:48;;;;;;;60.92;38.25;;;;;;;;;;5040673;28;20049;-93
2024/02/27 03:22:16;;;;;;;56.67;37.30;;;;;;;;;;5046881;28;20053;-93
2024/02/27 03:24:43;;;;;;;61.40;38.15;;;;;;;;;;5050257;28;20053;-92
2024/02/27 03:27:11;;;;;;;72.53;40.42;;;;;;;;;;5051435;28;20116;-92
2024/02/27 03:29:38;;;;;;;64.57;39.25;;;;;;;;;;5043290;28;20059;-92
2024/02/27 03:32:06;;;;;;;57.53;36.75;;;;;;;;;;5047741;28;20065;-92
2024/02/27 03:34:36;;;;;;;59.33;37.10;;;;;;;;;;5043195;28;20049;-93
2024/02/27 03:37:04;;;;;;;64.95;39.72;;;;;;;;;;5043149;28;20053;-92
2024/02/27 03:39:31;;;;;;;64.68;38.40;;;;;;;;;;5046375;28;20074;-92
2024/02/27 03:41:58;;;;;;;63.65;37.40;;;;;;;;;;5046540;28;20126;-92
2024/02/27 03:44:26;;;;;;;65.13;38.53;;;;;;;;;;5043961;28;20068;-92
2024/02/27 03:46:53;;;;;;;67.20;39.13;;;;;;;;;;5042556;28;20061;-92
2024/02/27 03:49:20;;;;;;;68.68;40.83;;;;;;;;;;5044552;28;20053;-92
2024/02/27 03:51:47;;;;;;;72.68;42.40;;;;;;;;;;5046300;28;20059;-92
2024/02/27 03:54:15;;;;;;;74.05;41.35;;;;;;;;;;5045563;28;20045;-93
2024/02/27 03:56:42;;;;;;;75.93;42.13;;;;;;;;;;5042924;28;20481;-94
2024/02/27 03:59:11;;;;;;;73.80;43.03;;;;;;;;;;5051996;28;20029;-92
2024/02/27 04:01:38;;;;;;;74.28;42.28;;;;;;;;;;5068178;28;20045;-92
2024/02/27 04:04:06;;;;;;;74.97;41.10;;;;;;;;;;5043594;28;20434;-93
2024/02/27 04:06:33;;;;;;;78.85;44.28;;;;;;;;;;5042504;28;20555;-93
2024/02/27 04:09:01;;;;;;;78.28;43.78;;;;;;;;;;5042753;28;20063;-92
2024/02/27 04:11:28;;;;;;;77.88;44.08;;;;;;;;;;5045373;28;20049;-92
2024/02/27 04:13:56;;;;;;;78.03;43.00;;;;;;;;;;5046441;28;20425;-93
2024/02/27 04:16:24;;;;;;;79.15;44.15;;;;;;;;;;5046209;28;20405;-93
2024/02/27 04:18:52;;;;;;;79.50;43.53;;;;;;;;;;5048289;28;20049;-92
2024/02/27 04:21:20;;;;;;;76.55;43.85;;;;;;;;;;5053130;28;20071;-92
2024/02/27 04:23:48;;;;;;;84.90;44.55;;;;;;;;;;5049343;28;20049;-93
2024/02/27 04:26:15;;;;;;;79.30;43.30;;;;;;;;;;5049284;28;20114;-93
2024/02/27 04:28:43;;;;;;;85.75;45.95;;;;;;;;;;5042304;28;20077;-92
2024/02/27 04:31:10;;;;;;;72.82;42.42;;;;;;;;;;5047290;28;20235;-92
2024/02/27 04:33:40;;;;;;;78.63;43.05;;;;;;;;;;5043437;28;20053;-93
2024/02/27 04:36:08;;;;;;;77.88;43.03;;;;;;;;;;5048376;28;20441;-92
2024/02/27 04:38:36;;;;;;;79.03;43.85;;;;;;;;;;5038365;28;20103;-93
2024/02/27 04:41:04;;;;;;;81.35;43.70;;;;;;;;;;5046000;28;20099;-92
2024/02/27 04:43:31;;;;;;;74.43;42.13;;;;;;;;;;5054163;28;20405;-91
2024/02/27 04:46:00;;;;;;;79.22;43.88;;;;;;;;;;5044997;28;20067;-93
2024/02/27 04:48:34;;;;;;;73.80;42.50;;;;;;;;;;5110765;27;20368;-80
2024/02/27 04:51:02;;;;;;;72.65;43.17;;;;;;;;;;5110870;28;20044;-80
2024/02/27 04:53:29;;;;;;;71.95;41.15;;;;;;;;;;5112186;28;20132;-80
2024/02/27 04:55:56;;;;;;;70.63;41.42;;;;;;;;;;5106467;28;20067;-81
2024/02/27 04:58:24;;;;;;;67.63;39.30;;;;;;;;;;5110474;28;20055;-80
2024/02/27 05:00:52;;;;;;;71.45;40.25;;;;;;;;;;5060050;22;20073;-84
2024/02/27 05:03:19;;;;;;;69.93;40.72;;;;;;;;;;5038891;28;20069;-84
2024/02/27 05:05:47;;;;;;;69.25;40.28;;;;;;;;;;5038476;28;20129;-84
2024/02/27 05:08:14;;;;;;;77.68;40.60;;;;;;;;;;5039505;28;20132;-83
2024/02/27 05:10:41;;;;;;;72.35;40.30;;;;;;;;;;5043499;28;20048;-84
2024/02/27 05:13:08;;;;;;;78.78;41.70;;;;;;;;;;5036662;28;20081;-83
2024/02/27 05:15:36;;;;;;;73.25;39.80;;;;;;;;;;5045467;28;20045;-86
2024/02/27 05:18:03;;;;;;;69.43;40.15;;;;;;;;;;5034906;28;20050;-85
2024/02/27 05:20:31;;;;;;;71.93;41.08;;;;;;;;;;5043124;28;20110;-86
2024/02/27 05:22:58;;;;;;;72.15;40.45;;;;;;;;;;5037421;28;20053;-84
2024/02/27 05:25:25;;;;;;;71.88;38.92;;;;;;;;;;5057884;28;20073;-84
2024/02/27 05:27:53;;;;;;;67.47;38.63;;;;;;;;;;5042486;28;20098;-85
2024/02/27 05:30:20;;;;;;;75.80;40.33;;;;;;;;;;5040851;28;20052;-85
2024/02/27 05:32:47;;;;;;;64.25;38.83;;;;;;;;;;5055653;28;20049;-85
2024/02/27 05:35:15;;;;;;;66.10;38.05;;;;;;;;;;5055651;28;20128;-86
2024/02/27 05:37:42;;;;;;;64.55;37.70;;;;;;;;;;5038040;28;20049;-85
2024/02/27 05:40:12;;;;;;;59.63;35.35;;;;;;;;;;5038091;28;20049;-85
2024/02/27 05:42:40;;;;;;;63.38;35.92;;;;;;;;;;5041900;28;20053;-84
2024/02/27 05:45:07;;;;;;;70.45;38.45;;;;;;;;;;5041505;28;20128;-85
2024/02/27 05:47:35;;;;;;;69.38;38.78;;;;;;;;;;5030886;28;20065;-85
2024/02/27 05:50:03;;;;;;;63.05;36.15;;;;;;;;;;5037550;28;20067;-84
2024/02/27 05:52:30;;;;;;;61.45;35.42;;;;;;;;;;5053961;28;20052;-84
2024/02/27 05:54:57;;;;;;;64.90;35.42;;;;;;;;;;5055279;28;20491;-86
2024/02/27 05:57:24;;;;;;;63.72;35.55;;;;;;;;;;5031452;28;20053;-86
2024/02/27 05:59:52;;;;;;;55.55;33.97;;;;;;;;;;5040137;28;20075;-84
2024/02/27 06:02:19;;;;;;;48.30;31.50;;;;;;;;;;5027339;28;20433;-85
2024/02/27 06:04:46;;;;;;;49.25;32.35;;;;;;;;;;5041670;28;20396;-86
2024/02/27 06:07:14;;;;;;;49.92;30.90;;;;;;;;;;5042241;28;20042;-84
2024/02/27 06:09:41;;;;;;;44.92;29.75;;;;;;;;;;5030772;28;20128;-86
2024/02/27 06:12:08;;;;;;;41.28;27.73;;;;;;;;;;5030476;28;20069;-85
2024/02/27 06:14:35;;;;;;;42.83;28.58;;;;;;;;;;5031362;28;20481;-86
2024/02/27 06:17:03;;;;;;;47.90;27.42;;;;;;;;;;5029319;28;20053;-85
2024/02/27 06:19:30;;;;;;;45.60;26.85;;;;;;;;;;5020316;28;20053;-86
2024/02/27 06:22:10;;;;;;;45.63;27.45;;;;;;;;;;5024851;28;20050;-85
2024/02/27 06:24:37;;;;;;;41.67;26.75;;;;;;;;;;5037119;28;20054;-86
2024/02/27 06:27:05;;;;;;;37.78;25.10;;;;;;;;;;5042216;28;20407;-83
2024/02/27 06:29:32;;;;;;;39.92;25.92;;;;;;;;;;5046752;28;20100;-86
2024/02/27 06:32:01;;;;;;;35.85;25.05;;;;;;;;;;5030935;28;20050;-86
2024/02/27 06:34:30;;;;;;;40.42;25.38;;;;;;;;;;5025373;28;20046;-85
2024/02/27 06:36:58;;;;;;;38.55;25.35;;;;;;;;;;5024570;28;20061;-84
2024/02/27 06:39:25;;;;;;;36.35;23.90;;;;;;;;;;5027378;28;20049;-85
2024/02/27 06:41:52;;;;;;;45.60;25.67;;;;;;;;;;5031428;28;20136;-84
2024/02/27 06:44:20;;;;;;;35.05;24.50;;;;;;;;;;5026034;28;20073;-86
2024/02/27 06:46:47;;;;;;;34.60;24.02;;;;;;;;;;5025382;28;20100;-86
2024/02/27 06:49:15;;;;;;;32.88;22.45;;;;;;;;;;5042056;28;20108;-85
2024/02/27 06:51:49;;;;;;;36.33;23.05;;;;;;;;;;5039644;28;20070;-85
2024/02/27 06:54:16;;;;;;;31.92;23.13;;;;;;;;;;5039502;28;20050;-84
2024/02/27 06:56:44;;;;;;;34.55;22.85;;;;;;;;;;5040425;28;20061;-85
2024/02/27 06:59:11;;;;;;;33.58;22.25;;;;;;;;;;5039842;28;20049;-84
2024/02/27 07:01:38;;;;;;;32.80;22.77;;;;;;;;;;5040717;28;20046;-83
2024/02/27 07:04:06;;;;;;;35.25;22.70;;;;;;;;;;5016827;28;20100;-83
2024/02/27 07:06:33;;;;;;;32.25;22.17;;;;;;;;;;5032709;28;20042;-85
2024/02/27 07:09:01;;;;;;;33.22;21.08;;;;;;;;;;5041279;28;20128;-85
2024/02/27 07:11:28;;;;;;;48.58;23.33;;;;;;;;;;5041716;28;20054;-84
2024/02/27 07:13:56;;;;;;;36.15;21.50;;;;;;;;;;5040413;28;20050;-86
2024/02/27 07:16:23;;;;;;;36.58;22.27;;;;;;;;;;5042906;28;20046;-86
2024/02/27 07:18:50;;;;;;;32.00;20.88;;;;;;;;;;5024599;28;20045;-85
2024/02/27 07:21:18;;;;;;;32.85;21.40;;;;;;;;;;5027556;28;20053;-86
2024/02/27 07:23:47;;;;;;;34.20;21.23;;;;;;;;;;5029737;28;20080;-86
2024/02/27 07:26:14;;;;;;;35.30;21.73;;;;;;;;;;5027460;28;20053;-84
2024/02/27 07:28:43;;;;;;;31.63;20.55;;;;;;;;;;5029518;28;20239;-83
2024/02/27 07:31:10;;;;;;;26.90;19.27;;;;;;;;;;5026839;28;20050;-83
2024/02/27 07:33:38;;;;;;;26.63;19.83;;;;;;;;;;5024866;28;20050;-84
2024/02/27 07:36:05;;;;;;;31.27;19.02;;;;;;;;;;5015251;28;20046;-83
2024/02/27 07:38:32;;;;;;;44.28;20.80;;;;;;;;;;5042523;28;20054;-83
2024/02/27 07:41:00;;;;;;;28.27;19.27;;;;;;;;;;5021406;28;20132;-83
2024/02/27 07:43:27;;;;;;;33.75;21.42;;;;;;;;;;5038852;28;20117;-82
2024/02/27 07:45:55;;;;;;;27.65;19.70;;;;;;;;;;5022892;28;20396;-82
2024/02/27 07:48:23;;;;;;;29.60;19.80;;;;;;;;;;5024239;28;20108;-83
2024/02/27 07:50:54;;;;;;;29.23;20.55;;;;;;;;;;5026461;28;20046;-83
2024/02/27 07:53:22;;;;;;;31.98;19.60;;;;;;;;;;5017367;28;20551;-83
2024/02/27 07:55:49;;;;;;;32.88;21.42;;;;;;;;;;5025870;28;20490;-83
2024/02/27 07:58:17;;;;;;;28.80;21.95;;;;;;;;;;5025173;28;20053;-83
2024/02/27 08:00:44;;;;;;;30.23;21.98;;;;;;;;;;5022904;28;20061;-83
2024/02/27 08:03:12;;;;;;;30.35;21.00;;;;;;;;;;5023207;28;20105;-83
2024/02/27 08:05:40;;;;;;;34.15;21.17;;;;;;;;;;5023289;28;20085;-83
2024/02/27 08:08:07;;;;;;;26.15;20.38;;;;;;;;;;5023291;28;20088;-82
2024/02/27 08:10:34;;;;;;;43.08;21.27;;;;;;;;;;5016095;28;20057;-83
2024/02/27 08:13:01;;;;;;;27.92;19.40;;;;;;;;;;5024501;28;20042;-84
2024/02/27 08:15:29;;;;;;;27.42;18.50;;;;;;;;;;5024062;28;20041;-83
2024/02/27 08:17:56;;;;;;;25.73;19.65;;;;;;;;;;5025845;28;20046;-83
2024/02/27 08:20:24;;;;;;;29.25;19.52;;;;;;;;;;5027842;28;20148;-83
2024/02/27 08:22:51;;;;;;;26.63;19.10;;;;;;;;;;5019791;28;20400;-83
2024/02/27 08:25:18;;;;;;;22.70;18.42;;;;;;;;;;5023398;28;20049;-82
2024/02/27 08:27:46;;;;;;;25.77;18.52;;;;;;;;;;5024646;28;20103;-82
2024/02/27 08:30:13;;;;;;;28.67;20.95;;;;;;;;;;5026168;28;20045;-82
2024/02/27 08:32:41;;;;;;;29.30;20.52;;;;;;;;;;5025091;28;20052;-82
2024/02/27 08:35:08;;;;;;;29.20;19.73;;;;;;;;;;5025179;28;20045;-82
2024/02/27 08:37:36;;;;;;;26.08;19.75;;;;;;;;;;5009398;28;20072;-83
2024/02/27 08:40:04;;;;;;;29.10;20.23;;;;;;;;;;5025144;28;20490;-83
2024/02/27 08:42:33;;;;;;;31.45;21.30;;;;;;;;;;5021900;28;20503;-82
2024/02/27 08:45:00;;;;;;;26.90;20.05;;;;;;;;;;5021465;28;20104;-82
2024/02/27 08:47:27;;;;;;;27.45;19.88;;;;;;;;;;5023832;28;20487;-83
2024/02/27 08:49:55;;;;;;;26.70;19.60;;;;;;;;;;5020875;28;20092;-83
2024/02/27 08:52:22;;;;;;;28.55;19.75;;;;;;;;;;5025278;28;20045;-83
2024/02/27 08:54:49;;;;;;;26.20;18.77;;;;;;;;;;5026721;28;20080;-84
2024/02/27 08:57:16;;;;;;;27.33;19.67;;;;;;;;;;5019461;28;20042;-84
2024/02/27 08:59:46;;;;;;;33.55;21.38;;;;;;;;;;5026327;28;20050;-84
2024/02/27 09:02:14;;;;;;;25.98;19.77;;;;;;;;;;5026788;28;20056;-84
2024/02/27 09:04:41;;;;;;;31.02;20.17;;;;;;;;;;5039179;28;20050;-84
2024/02/27 09:07:10;;;;;;;29.23;20.08;;;;;;;;;;5039150;28;20054;-84
2024/02/27 09:09:38;;;;;;;30.83;19.23;;;;;;;;;;5027789;28;20050;-83
2024/02/27 09:12:09;;;;;;;28.17;19.25;;;;;;;;;;5026833;28;20068;-84
2024/02/27 09:14:37;;;;;;;28.60;19.00;;;;;;;;;;5015667;28;20078;-84
2024/02/27 09:17:04;;;;;;;30.95;19.40;;;;;;;;;;5023122;28;20065;-84
2024/02/27 09:19:32;;;;;;;26.92;18.40;;;;;;;;;;5028671;28;20144;-85
2024/02/27 09:22:02;;;;;;;29.02;19.05;;;;;;;;;;5020772;28;20057;-84
2024/02/27 09:24:30;;;;;;;23.58;17.95;;;;;;;;;;5043299;28;20486;-84
2024/02/27 09:26:58;;;;;;;29.67;19.48;;;;;;;;;;5027451;28;20117;-84
2024/02/27 09:29:28;;;;;;;29.92;19.15;;;;;;;;;;5026599;28;20045;-84
2024/02/27 09:31:55;;;;;;;123.90;76.55;;;;;;;;;;5040995;28;20050;-84
2024/02/27 09:34:23;;;;;;;27.58;19.05;;;;;;;;;;5045614;28;20507;-84
2024/02/27 09:36:51;;;;;;;23.73;18.52;;;;;;;;;;5024158;28;20505;-84
2024/02/27 09:39:18;;;;;;;68.75;47.03;;;;;;;;;;5044157;28;20058;-84
2024/02/27 09:42:04;;;;;;;30.20;20.73;;;;;;;;;;5031142;28;20083;-84
2024/02/27 09:44:31;;;;;;;26.70;19.67;;;;;;;;;;5019951;28;20049;-84
2024/02/27 09:46:59;;;;;;;31.08;23.85;;;;;;;;;;5020844;28;20077;-83
2024/02/27 09:49:27;;;;;;;28.45;20.17;;;;;;;;;;5042668;28;20070;-83
2024/02/27 09:52:10;;;;;;;31.73;20.63;;;;;;;;;;5019744;28;20050;-84
2024/02/27 09:54:38;;;;;;;30.55;20.52;;;;;;;;;;5039639;28;20073;-84
2024/02/27 09:57:06;;;;;;;28.00;20.05;;;;;;;;;;5043147;28;20134;-84
2024/02/27 09:59:34;;;;;;;31.58;21.83;;;;;;;;;;5049119;28;20491;-85
2024/02/27 10:02:21;;;;;;;191.02;99.05;;;;;;;;;;5031735;28;20057;-84
2024/02/27 10:04:49;;;;;;;76.53;41.65;;;;;;;;;;5026574;28;20081;-83
2024/02/27 10:07:18;;;;;;;37.35;25.10;;;;;;;;;;5028478;28;20506;-83
2024/02/27 10:09:46;;;;;;;60.25;44.50;;;;;;;;;;5042452;28;20111;-84
2024/02/27 10:12:14;;;;;;;38.88;26.58;;;;;;;;;;5042360;28;20072;-85
2024/02/27 10:14:42;;;;;;;106.15;69.65;;;;;;;;;;5029055;28;20049;-83
2024/02/27 10:17:10;;;;;;;53.50;32.83;;;;;;;;;;5020892;28;20050;-83
2024/02/27 10:19:37;;;;;;;100.57;59.33;;;;;;;;;;5027149;28;20127;-85
2024/02/27 10:22:06;;;;;;;65.72;43.33;;;;;;;;;;5043753;28;20126;-84
2024/02/27 10:24:33;;;;;;;44.53;28.83;;;;;;;;;;5043064;28;20081;-84
2024/02/27 10:27:02;;;;;;;34.60;22.27;;;;;;;;;;5026858;28;20050;-84
2024/02/27 10:29:31;;;;;;;33.38;21.38;;;;;;;;;;5028268;28;20061;-84
2024/02/27 10:31:58;;;;;;;32.10;21.90;;;;;;;;;;5028667;28;20454;-84
2024/02/27 10:34:26;;;;;;;33.72;21.83;;;;;;;;;;5030265;28;20054;-84
2024/02/27 10:37:03;;;;;;;36.13;23.17;;;;;;;;;;5031419;28;20053;-85
2024/02/27 10:39:34;;;;;;;34.15;22.23;;;;;;;;;;5026682;28;20045;-84
2024/02/27 10:42:01;;;;;;;40.00;24.30;;;;;;;;;;5026065;28;20091;-84
2024/02/27 10:44:29;;;;;;;45.17;23.38;;;;;;;;;;5022503;28;20065;-85
2024/02/27 10:46:58;;;;;;;50.33;24.58;;;;;;;;;;5030427;28;20081;-83
2024/02/27 10:49:26;;;;;;;41.65;23.35;;;;;;;;;;5027443;28;20055;-83
2024/02/27 10:51:55;;;;;;;36.40;23.42;;;;;;;;;;5024432;28;20060;-83
2024/02/27 10:54:24;;;;;;;39.35;24.55;;;;;;;;;;5024010;28;20056;-83
2024/02/27 10:56:53;;;;;;;40.35;24.70;;;;;;;;;;5023798;28;20060;-82
2024/02/27 10:59:24;;;;;;;38.90;23.65;;;;;;;;;;5023093;28;20076;-82
2024/02/27 11:01:52;;;;;;;42.13;25.10;;;;;;;;;;5024000;28;20050;-83
2024/02/27 11:04:23;;;;;;;40.47;24.35;;;;;;;;;;5024542;28;20067;-83
2024/02/27 11:06:51;;;;;;;37.20;24.45;;;;;;;;;;5026756;28;20103;-83
2024/02/27 11:09:25;;;;;;;39.38;24.60;;;;;;;;;;5024593;28;20516;-82
2024/02/27 11:11:55;;;;;;;63.40;26.73;;;;;;;;;;5038827;28;20519;-82
2024/02/27 11:14:26;;;;;;;41.58;25.25;;;;;;;;;;5038544;28;20053;-82
2024/02/27 11:16:56;;;;;;;40.55;25.02;;;;;;;;;;5022088;28;20114;-82
2024/02/27 11:19:24;;;;;;;41.08;24.92;;;;;;;;;;5023891;28;20435;-83
2024/02/27 11:21:56;;;;;;;44.00;25.10;;;;;;;;;;5020727;28;20050;-83
2024/02/27 11:24:23;;;;;;;44.13;24.98;;;;;;;;;;5030008;28;20049;-84
2024/02/27 11:26:50;;;;;;;43.83;24.30;;;;;;;;;;5021948;28;20062;-83
2024/02/27 11:29:18;;;;;;;47.45;26.75;;;;;;;;;;5048323;28;20046;-84
2024/02/27 11:31:46;;;;;;;45.83;27.25;;;;;;;;;;5028529;28;20042;-84
2024/02/27 11:34:22;;;;;;;49.03;26.75;;;;;;;;;;5025743;28;20049;-85
2024/02/27 11:37:09;;;;;;;43.00;23.85;;;;;;;;;;5024188;28;20526;-84
2024/02/27 11:39:36;;;;;;;43.53;26.02;;;;;;;;;;5032979;28;20058;-84
2024/02/27 11:42:08;;;;;;;41.30;24.95;;;;;;;;;;5041810;28;20062;-84
2024/02/27 11:44:55;;;;;;;46.47;26.17;;;;;;;;;;5020691;28;20081;-84
2024/02/27 11:47:36;;;;;;;50.33;26.65;;;;;;;;;;5042025;28;20097;-85
2024/02/27 11:50:06;;;;;;;45.80;26.27;;;;;;;;;;5042274;28;20042;-85
2024/02/27 11:52:36;;;;;;;42.88;26.92;;;;;;;;;;5045201;28;20041;-84
2024/02/27 11:55:07;;;;;;;42.70;26.48;;;;;;;;;;5029610;28;20096;-84
2024/02/27 11:57:35;;;;;;;37.38;24.15;;;;;;;;;;5016798;28;20586;-85
2024/02/27 12:00:21;;;;;;;46.03;27.05;;;;;;;;;;5024918;28;20111;-84
2024/02/27 12:02:48;;;;;;;45.67;26.85;;;;;;;;;;5035574;28;20050;-84
2024/02/27 12:05:18;;;;;;;46.22;27.73;;;;;;;;;;5043339;28;20111;-85
2024/02/27 12:07:45;;;;;;;41.67;26.55;;;;;;;;;;5016127;28;20501;-83
2024/02/27 12:10:14;;;;;;;48.15;27.50;;;;;;;;;;5024755;28;20478;-84
2024/02/27 12:12:42;;;;;;;43.08;27.95;;;;;;;;;;5029854;28;20046;-84
2024/02/27 12:15:10;;;;;;;46.00;28.35;;;;;;;;;;5026156;28;20045;-84
2024/02/27 12:17:37;;;;;;;50.75;29.52;;;;;;;;;;5039951;28;20100;-82
2024/02/27 12:20:05;;;;;;;44.08;27.95;;;;;;;;;;5040602;28;20103;-83
2024/02/27 12:22:36;;;;;;;46.38;28.58;;;;;;;;;;5028299;28;20054;-85
2024/02/27 12:25:05;;;;;;;50.50;29.38;;;;;;;;;;5026519;28;20046;-85
2024/02/27 12:27:32;;;;;;;49.85;29.63;;;;;;;;;;5042365;28;20053;-84
2024/02/27 12:30:01;;;;;;;48.40;29.75;;;;;;;;;;5041972;28;20046;-83
2024/02/27 12:32:29;;;;;;;48.47;29.23;;;;;;;;;;5045235;28;20137;-84
2024/02/27 12:34:56;;;;;;;45.50;28.30;;;;;;;;;;5028719;28;20050;-84
2024/02/27 12:37:24;;;;;;;48.28;29.33;;;;;;;;;;5024803;28;20050;-85
2024/02/27 12:39:51;;;;;;;46.22;30.42;;;;;;;;;;5042559;28;20466;-86
2024/02/27 12:42:18;;;;;;;46.55;29.83;;;;;;;;;;5040867;28;20058;-84
2024/02/27 12:44:47;;;;;;;49.45;31.00;;;;;;;;;;5027033;28;20099;-84
2024/02/27 12:47:15;;;;;;;48.13;29.17;;;;;;;;;;5017701;28;20053;-85
2024/02/27 12:49:42;;;;;;;52.15;30.77;;;;;;;;;;5039613;28;20045;-85
2024/02/27 12:52:14;;;;;;;49.80;29.90;;;;;;;;;;5040566;28;20052;-84
2024/02/27 12:54:42;;;;;;;48.47;30.15;;;;;;;;;;5026697;28;20072;-84
2024/02/27 12:57:09;;;;;;;44.50;29.02;;;;;;;;;;5026101;28;20576;-84
2024/02/27 12:59:37;;;;;;;51.15;29.23;;;;;;;;;;5021489;28;20057;-83
2024/02/27 13:02:07;;;;;;;46.70;29.10;;;;;;;;;;5038235;28;20518;-84
2024/02/27 13:04:36;;;;;;;47.55;29.55;;;;;;;;;;5038794;28;20553;-84
2024/02/27 13:07:04;;;;;;;44.17;28.08;;;;;;;;;;5038601;28;20060;-84
2024/02/27 13:09:32;;;;;;;45.53;28.50;;;;;;;;;;5035326;28;20307;-84
2024/02/27 13:12:09;;;;;;;51.67;29.23;;;;;;;;;;5022858;28;20045;-83
2024/02/27 13:14:37;;;;;;;46.42;28.48;;;;;;;;;;5034426;28;20475;-84
2024/02/27 13:17:04;;;;;;;49.00;28.50;;;;;;;;;;5033960;28;20046;-85
2024/02/27 13:19:31;;;;;;;49.90;29.75;;;;;;;;;;5045362;28;20076;-84
2024/02/27 13:21:59;;;;;;;49.65;30.80;;;;;;;;;;5029307;28;20050;-84
2024/02/27 13:24:27;;;;;;;48.55;29.25;;;;;;;;;;5020802;28;20050;-86
2024/02/27 13:26:55;;;;;;;49.78;29.75;;;;;;;;;;5029557;28;20111;-85
2024/02/27 13:29:24;;;;;;;49.90;29.95;;;;;;;;;;5018970;28;20041;-85
2024/02/27 13:31:53;;;;;;;53.63;30.10;;;;;;;;;;5019355;28;20046;-84
2024/02/27 13:34:21;;;;;;;50.80;30.30;;;;;;;;;;5037476;28;20046;-85
2024/02/27 13:36:49;;;;;;;54.50;30.45;;;;;;;;;;5020447;28;20054;-85
2024/02/27 13:39:17;;;;;;;58.17;31.73;;;;;;;;;;5024957;28;20140;-85
2024/02/27 13:41:48;;;;;;;53.72;30.13;;;;;;;;;;5042960;28;20045;-84
2024/02/27 13:44:16;;;;;;;60.97;31.88;;;;;;;;;;5043161;28;20058;-84
2024/02/27 13:46:44;;;;;;;49.90;30.73;;;;;;;;;;5024502;28;20058;-85
2024/02/27 13:49:18;;;;;;;53.28;30.83;;;;;;;;;;5042347;28;20049;-82
2024/02/27 13:51:46;;;;;;;52.85;30.95;;;;;;;;;;5023583;28;20050;-83
2024/02/27 13:54:13;;;;;;;51.33;30.83;;;;;;;;;;5025425;28;20049;-83
2024/02/27 13:56:41;;;;;;;53.63;31.85;;;;;;;;;;5028410;28;20095;-83
2024/02/27 13:59:08;;;;;;;50.95;30.00;;;;;;;;;;5028397;28;20061;-82
2024/02/27 14:01:35;;;;;;;49.30;29.38;;;;;;;;;;5018124;28;20569;-83
2024/02/27 14:04:03;;;;;;;58.03;31.30;;;;;;;;;;5027336;28;20419;-82
2024/02/27 14:06:31;;;;;;;59.10;31.90;;;;;;;;;;5045320;28;20095;-84
2024/02/27 14:08:59;;;;;;;56.97;32.95;;;;;;;;;;5030344;28;20088;-83
2024/02/27 14:11:26;;;;;;;57.63;32.92;;;;;;;;;;5027571;28;20053;-83
2024/02/27 14:13:54;;;;;;;65.55;33.20;;;;;;;;;;5032176;28;20045;-83
2024/02/27 14:16:38;;;;;;;62.50;32.88;;;;;;;;;;5026410;28;20388;-84
2024/02/27 14:19:07;;;;;;;59.45;33.13;;;;;;;;;;5025266;28;20054;-83
2024/02/27 14:21:34;;;;;;;64.65;34.40;;;;;;;;;;5043558;28;20045;-84
2024/02/27 14:24:02;;;;;;;67.32;34.33;;;;;;;;;;5043600;28;20061;-84